Bahri Jazan — HZFI — position and weather

sailwx.info

Track history (hours):
 
Tides and Currents Weather Stations Pressure Air Temp Water Temp Dewpoint Dewpoint Depression Visibility Wind Speed Wind Dir Waves Ship Positions

Bahri Jazan

Last reported at 2018-Feb-10 19:43 UTC. Time now 2018-Feb-20 23:22 UTC.
Position N 31°38' E 032°05'.
Warning: this ship's position is 10 days out of date.

Length 225 m; draft 7.9 m.

Type: Ship (hazmat cat D). MMSI: 403533001.

Date/timePositionNaut miles runAvg speedWind from/ knotsBaromVisibWave heightAir tempDewpointWater temp
2018-Feb-10 19:43N 31°38' E 032°05'2414.2
2018-Feb-10 18:01N 31°45' E 031°38'215.3
2018-Feb-10 17:55N 31°45' E 031°37'615.5
2018-Feb-10 17:30N 31°45' E 031°29'815.5
2018-Feb-10 17:01N 31°45' E 031°20'815.3
2018-Feb-10 16:30N 31°45' E 031°11'815.1
2018-Feb-10 16:00N 31°45' E 031°02'  
2018-Feb-07 09:27N 37°56' E 015°36'613.7
2018-Feb-07 08:59N 38°02' E 015°33'1313.7
2018-Feb-07 08:00N 38°15' E 015°38'4 8.1
2018-Feb-07 07:30N 38°19' E 015°39'510.4
2018-Feb-07 07:00N 38°23' E 015°34'611.3
2018-Feb-07 06:30N 38°27' E 015°29'612.7
2018-Feb-07 06:00N 38°32' E 015°24'612.5
2018-Feb-07 05:30N 38°36' E 015°18'612.6
2018-Feb-07 05:00N 38°41' E 015°13'612.7
2018-Feb-07 04:30N 38°46' E 015°07'612.6
2018-Feb-07 04:00N 38°49' E 015°01'612.7
2018-Feb-07 03:30N 38°54' E 014°54'2112.5
2018-Feb-07 01:51N 39°07' E 014°35'512.7
2018-Feb-07 01:27N 39°11' E 014°30'28913.2
2018-Feb-06 03:36N 42°27' E 009°49'213.4
2018-Feb-06 03:29N 42°28' E 009°48'2313.8
2018-Feb-06 01:50N 42°50' E 009°37'513.8
2018-Feb-06 01:29N 42°55' E 009°36'713.9
2018-Feb-06 01:00N 43°01' E 009°35'713.7
2018-Feb-06 00:30N 43°08' E 009°33'713.7
2018-Feb-06 00:00N 43°14' E 009°30'713.8
2018-Feb-05 23:30N 43°21' E 009°28'713.9
2018-Feb-05 23:00N 43°28' E 009°26'713.8
2018-Feb-05 22:30N 43°35' E 009°23'713.7
2018-Feb-05 22:00N 43°41' E 009°21'713.5
2018-Feb-05 21:30N 43°48' E 009°18'714.0
2018-Feb-05 21:00N 43°54' E 009°15'713.6
2018-Feb-05 20:30N 44°00' E 009°11'612.8
2018-Feb-05 20:00N 44°06' E 009°07'713.2
2018-Feb-05 19:30N 44°12' E 009°03'713.1
2018-Feb-05 19:00N 44°18' E 008°59'510.2
2018-Feb-05 18:30N 44°23' E 008°57'3 5.3
2018-Feb-05 18:00N 44°24' E 008°54'0 0.2
2018-Feb-05 17:28N 44°24' E 008°54'0 0.0
2018-Feb-05 16:58N 44°24' E 008°54'0 0.0
2018-Feb-05 16:28N 44°24' E 008°54'0 0.0
2018-Feb-05 15:58N 44°24' E 008°54'0 0.0
2018-Feb-05 15:28N 44°24' E 008°54'0 0.0
2018-Feb-05 14:58N 44°24' E 008°54'0 0.0
2018-Feb-05 14:28N 44°24' E 008°54'0 0.0
2018-Feb-05 13:58N 44°24' E 008°54'0 0.0
2018-Feb-05 13:28N 44°24' E 008°54'0 0.0
2018-Feb-05 12:58N 44°24' E 008°54'0 0.0
2018-Feb-05 12:28N 44°24' E 008°54'0 0.0
2018-Feb-05 11:58N 44°24' E 008°54'0 0.0
2018-Feb-05 11:28N 44°24' E 008°54'0 0.0
2018-Feb-05 10:49N 44°24' E 008°54'0 0.0
2018-Feb-05 10:28N 44°24' E 008°54'0 0.0
2018-Feb-05 09:58N 44°24' E 008°54'0 0.0
2018-Feb-05 09:28N 44°24' E 008°54'0 0.0
2018-Feb-05 08:58N 44°24' E 008°54'0 0.0
2018-Feb-05 08:28N 44°24' E 008°54'0 0.0
2018-Feb-05 07:58N 44°24' E 008°54'0 0.0
2018-Feb-05 07:28N 44°24' E 008°54'0 0.0
2018-Feb-05 06:58N 44°24' E 008°54'0 0.0
2018-Feb-05 06:25N 44°24' E 008°54'0 0.0
2018-Feb-05 05:30N 44°24' E 008°54'2 3.2
2018-Feb-05 05:00N 44°24' E 008°56'3 5.3
2018-Feb-05 04:30N 44°21' E 008°58'0 0.6
2018-Feb-05 04:01N 44°21' E 008°58'4 7.2
2018-Feb-05 03:30N 44°18' E 008°58'714.1
2018-Feb-05 03:00N 44°11' E 008°54'714.0
2018-Feb-05 02:30N 44°05' E 008°50'713.8
2018-Feb-05 02:00N 43°58' E 008°47'713.4
2018-Feb-05 01:30N 43°52' E 008°44'713.8
2018-Feb-05 01:00N 43°45' E 008°41'713.5
2018-Feb-05 00:30N 43°39' E 008°37'713.5
2018-Feb-04 23:59N 43°33' E 008°33'713.5
2018-Feb-04 23:30N 43°27' E 008°29'713.3
2018-Feb-04 22:58N 43°21' E 008°25'29410.7
2018-Feb-03 19:34N 40°26' E 003°07'2210.3
2018-Feb-03 17:26N 40°13' E 002°43'4 9.6
2018-Feb-03 17:00N 40°10' E 002°39'45610.0
2018-Feb-01 19:30N 35°58' W 005°23'  
Track history (hours):
 
Tides and Currents Weather Stations Pressure Air Temp Water Temp Dewpoint Dewpoint Depression Visibility Wind Speed Wind Dir Waves Ship Positions

Bahri Jazan

Last reported at 2018-Feb-10 19:43 UTC. Time now 2018-Feb-20 23:22 UTC.
Position N 31°38' E 032°05'.
Warning: this ship's position is 10 days out of date.

Length 225 m; draft 7.9 m.

Type: Ship (hazmat cat D). MMSI: 403533001.

Date/timePositionNaut miles runAvg speedWind from/ knotsBaromVisibWave heightAir tempDewpointWater temp
2018-Feb-10 19:43N 31°38' E 032°05'2414.2
2018-Feb-10 18:01N 31°45' E 031°38'215.3
2018-Feb-10 17:55N 31°45' E 031°37'615.5
2018-Feb-10 17:30N 31°45' E 031°29'815.5
2018-Feb-10 17:01N 31°45' E 031°20'815.3
2018-Feb-10 16:30N 31°45' E 031°11'815.1
2018-Feb-10 16:00N 31°45' E 031°02'  
2018-Feb-07 09:27N 37°56' E 015°36'613.7
2018-Feb-07 08:59N 38°02' E 015°33'1313.7
2018-Feb-07 08:00N 38°15' E 015°38'4 8.1
2018-Feb-07 07:30N 38°19' E 015°39'510.4
2018-Feb-07 07:00N 38°23' E 015°34'611.3
2018-Feb-07 06:30N 38°27' E 015°29'612.7
2018-Feb-07 06:00N 38°32' E 015°24'612.5
2018-Feb-07 05:30N 38°36' E 015°18'612.6
2018-Feb-07 05:00N 38°41' E 015°13'612.7
2018-Feb-07 04:30N 38°46' E 015°07'612.6
2018-Feb-07 04:00N 38°49' E 015°01'612.7
2018-Feb-07 03:30N 38°54' E 014°54'2112.5
2018-Feb-07 01:51N 39°07' E 014°35'512.7
2018-Feb-07 01:27N 39°11' E 014°30'28913.2
2018-Feb-06 03:36N 42°27' E 009°49'213.4
2018-Feb-06 03:29N 42°28' E 009°48'2313.8
2018-Feb-06 01:50N 42°50' E 009°37'513.8
2018-Feb-06 01:29N 42°55' E 009°36'713.9
2018-Feb-06 01:00N 43°01' E 009°35'713.7
2018-Feb-06 00:30N 43°08' E 009°33'713.7
2018-Feb-06 00:00N 43°14' E 009°30'713.8
2018-Feb-05 23:30N 43°21' E 009°28'713.9
2018-Feb-05 23:00N 43°28' E 009°26'713.8
2018-Feb-05 22:30N 43°35' E 009°23'713.7
2018-Feb-05 22:00N 43°41' E 009°21'713.5
2018-Feb-05 21:30N 43°48' E 009°18'714.0
2018-Feb-05 21:00N 43°54' E 009°15'713.6
2018-Feb-05 20:30N 44°00' E 009°11'612.8
2018-Feb-05 20:00N 44°06' E 009°07'713.2
2018-Feb-05 19:30N 44°12' E 009°03'713.1
2018-Feb-05 19:00N 44°18' E 008°59'510.2
2018-Feb-05 18:30N 44°23' E 008°57'3 5.3
2018-Feb-05 18:00N 44°24' E 008°54'0 0.2
2018-Feb-05 17:28N 44°24' E 008°54'0 0.0
2018-Feb-05 16:58N 44°24' E 008°54'0 0.0
2018-Feb-05 16:28N 44°24' E 008°54'0 0.0
2018-Feb-05 15:58N 44°24' E 008°54'0 0.0
2018-Feb-05 15:28N 44°24' E 008°54'0 0.0
2018-Feb-05 14:58N 44°24' E 008°54'0 0.0
2018-Feb-05 14:28N 44°24' E 008°54'0 0.0
2018-Feb-05 13:58N 44°24' E 008°54'0 0.0
2018-Feb-05 13:28N 44°24' E 008°54'0 0.0
2018-Feb-05 12:58N 44°24' E 008°54'0 0.0
2018-Feb-05 12:28N 44°24' E 008°54'0 0.0
2018-Feb-05 11:58N 44°24' E 008°54'0 0.0
2018-Feb-05 11:28N 44°24' E 008°54'0 0.0
2018-Feb-05 10:49N 44°24' E 008°54'0 0.0
2018-Feb-05 10:28N 44°24' E 008°54'0 0.0
2018-Feb-05 09:58N 44°24' E 008°54'0 0.0
2018-Feb-05 09:28N 44°24' E 008°54'0 0.0
2018-Feb-05 08:58N 44°24' E 008°54'0 0.0
2018-Feb-05 08:28N 44°24' E 008°54'0 0.0
2018-Feb-05 07:58N 44°24' E 008°54'0 0.0
2018-Feb-05 07:28N 44°24' E 008°54'0 0.0
2018-Feb-05 06:58N 44°24' E 008°54'0 0.0
2018-Feb-05 06:25N 44°24' E 008°54'0 0.0
2018-Feb-05 05:30N 44°24' E 008°54'2 3.2
2018-Feb-05 05:00N 44°24' E 008°56'3 5.3
2018-Feb-05 04:30N 44°21' E 008°58'0 0.6
2018-Feb-05 04:01N 44°21' E 008°58'4 7.2
2018-Feb-05 03:30N 44°18' E 008°58'714.1
2018-Feb-05 03:00N 44°11' E 008°54'714.0
2018-Feb-05 02:30N 44°05' E 008°50'713.8
2018-Feb-05 02:00N 43°58' E 008°47'713.4
2018-Feb-05 01:30N 43°52' E 008°44'713.8
2018-Feb-05 01:00N 43°45' E 008°41'713.5
2018-Feb-05 00:30N 43°39' E 008°37'713.5
2018-Feb-04 23:59N 43°33' E 008°33'713.5
2018-Feb-04 23:30N 43°27' E 008°29'713.3
2018-Feb-04 22:58N 43°21' E 008°25'29410.7
2018-Feb-03 19:34N 40°26' E 003°07'2210.3
2018-Feb-03 17:26N 40°13' E 002°43'4 9.6
2018-Feb-03 17:00N 40°10' E 002°39'45610.0
2018-Feb-01 19:30N 35°58' W 005°23'  

Dump ship's entire track history